Rosemary Beach, Florida
Current Conditions -  °F | °C
As of 10:53 AM on Monday 22 Dec 2014 (Local Time) from KECP Reporting Station
Overcast Overcast  
Wind Chill: 63°   Ceiling: 3800
Heat Index: 63°   Visibility: 10mi
Dew Point: 60°   Wind: 0mph
Humidity: 90%   Direction: NA
Pressure: 29.88"   Gusts: NA
Location:  30.2534°N, 85.9486°W
Report Text: KECP 221653Z 00000KT 10SM BKN038 BKN044 OVC050 17/16 A2988 RMK AO2 RAB14E23 SLP131 P0000 T01720156 $
Loading
Personal Weather Stations






























Interactive Weather Map New forecast layout! Learn more

10-Day Weather Forecast

Advertisements
Track Severe Weather on mobile